createdAt,value
2022-09-21T00:01:29.424Z,3.17
2022-09-21T00:03:58.397Z,3.00
2022-09-21T00:06:27.853Z,3.03
2022-09-21T00:08:55.329Z,2.93
2022-09-21T00:11:26.103Z,2.70
2022-09-21T00:14:04.607Z,2.60
2022-09-21T00:16:34.224Z,2.87
2022-09-21T00:19:01.081Z,2.83
2022-09-21T00:21:28.293Z,2.63
2022-09-21T00:23:55.420Z,2.63
2022-09-21T00:26:24.608Z,2.80
2022-09-21T00:28:56.579Z,3.40
2022-09-21T00:31:23.984Z,2.83
2022-09-21T00:33:51.241Z,2.87
2022-09-21T00:36:20.519Z,2.90
2022-09-21T00:38:52.844Z,3.00
2022-09-21T00:41:20.217Z,2.80
2022-09-21T00:44:08.346Z,2.80
2022-09-21T00:46:39.089Z,3.13
2022-09-21T00:49:06.186Z,2.97
2022-09-21T00:51:32.964Z,2.50
2022-09-21T00:54:06.807Z,2.50
2022-09-21T00:56:35.232Z,2.80
2022-09-21T00:59:02.995Z,2.50
2022-09-21T01:01:30.945Z,2.47
2022-09-21T01:03:57.910Z,3.00
2022-09-21T01:06:25.277Z,2.20
2022-09-21T01:08:56.115Z,2.20
2022-09-21T01:11:34.435Z,1.87
2022-09-21T01:14:04.164Z,2.33
2022-09-21T01:16:39.948Z,2.00
2022-09-21T01:19:31.454Z,1.90
2022-09-21T01:22:05.903Z,2.20
2022-09-21T01:24:39.441Z,1.50
2022-09-21T01:27:38.132Z,2.13
2022-09-21T01:30:11.855Z,2.30
2022-09-21T01:32:48.385Z,1.90
2022-09-21T01:35:21.505Z,2.37
2022-09-21T01:37:56.990Z,1.93
2022-09-21T01:40:34.545Z,2.20
2022-09-21T01:43:05.579Z,2.17
2022-09-21T01:45:40.774Z,2.23
2022-09-21T01:48:08.347Z,2.13
2022-09-21T01:50:40.743Z,1.90
2022-09-21T01:53:18.420Z,2.30
2022-09-21T01:55:59.656Z,2.00
2022-09-21T01:59:06.587Z,2.50
2022-09-21T02:01:39.960Z,2.67
2022-09-21T02:04:11.326Z,2.30
2022-09-21T02:06:41.446Z,2.57
2022-09-21T02:09:10.554Z,2.30
2022-09-21T02:11:43.860Z,2.70
2022-09-21T02:14:21.491Z,2.23
2022-09-21T02:17:00.766Z,2.73
2022-09-21T02:19:48.103Z,2.23
2022-09-21T02:22:29.319Z,2.50
2022-09-21T02:25:04.822Z,2.10
2022-09-21T02:27:53.160Z,2.57
2022-09-21T02:30:22.381Z,2.47
2022-09-21T02:32:54.992Z,2.13
2022-09-21T02:35:43.747Z,2.30
2022-09-21T02:38:17.944Z,2.40
2022-09-21T02:40:56.664Z,2.23
2022-09-21T02:43:32.095Z,2.40
2022-09-21T02:46:09.751Z,2.50
2022-09-21T02:48:47.066Z,2.37
2022-09-21T02:51:19.186Z,2.03
2022-09-21T02:53:47.913Z,2.07
2022-09-21T02:56:16.002Z,2.60
2022-09-21T02:58:51.018Z,2.20
2022-09-21T03:01:19.135Z,2.80
2022-09-21T03:03:45.912Z,2.43
2022-09-21T03:06:12.662Z,2.40
2022-09-21T03:08:39.647Z,2.43
2022-09-21T03:11:06.469Z,2.50
2022-09-21T03:13:33.529Z,2.77
2022-09-21T03:16:02.685Z,2.90
2022-09-21T03:18:30.539Z,2.27
2022-09-21T03:20:57.316Z,2.90
2022-09-21T03:23:24.058Z,2.40
2022-09-21T03:25:52.327Z,2.70
2022-09-21T03:28:19.828Z,2.93
2022-09-21T03:30:47.907Z,2.50
2022-09-21T03:33:15.177Z,2.60
2022-09-21T03:35:42.492Z,2.70
2022-09-21T03:38:09.490Z,2.60
2022-09-21T03:40:36.284Z,2.83
2022-09-21T03:43:03.512Z,2.77
2022-09-21T03:45:30.212Z,2.47
2022-09-21T03:47:58.736Z,2.60
2022-09-21T03:50:28.418Z,2.40
2022-09-21T03:52:56.386Z,2.70
2022-09-21T03:55:23.668Z,2.70
2022-09-21T03:57:50.328Z,2.50
2022-09-21T04:00:17.777Z,2.60
2022-09-21T04:02:44.614Z,2.60
2022-09-21T04:05:14.828Z,2.37
2022-09-21T04:07:42.995Z,2.50
2022-09-21T04:10:13.015Z,3.30
2022-09-21T04:12:44.197Z,4.23
2022-09-21T04:15:15.973Z,3.27
2022-09-21T04:17:42.655Z,2.80
2022-09-21T04:20:09.664Z,3.20
2022-09-21T04:22:41.089Z,3.03
2022-09-21T04:25:10.664Z,3.10
2022-09-21T04:27:37.561Z,3.30
2022-09-21T04:30:05.653Z,3.13
2022-09-21T04:32:32.348Z,3.10
2022-09-21T04:34:59.044Z,3.20
2022-09-21T04:37:25.870Z,3.23
2022-09-21T04:39:52.669Z,3.10
2022-09-21T04:42:19.452Z,2.70
2022-09-21T04:44:46.126Z,2.93
2022-09-21T04:47:12.906Z,2.30
2022-09-21T04:49:39.639Z,2.67
2022-09-21T04:52:06.315Z,3.10
2022-09-21T04:54:33.041Z,3.10
2022-09-21T04:56:59.796Z,3.10
2022-09-21T04:59:26.497Z,3.20
2022-09-21T05:01:53.211Z,3.37
2022-09-21T05:04:20.031Z,4.27
2022-09-21T05:06:46.849Z,4.53
2022-09-21T05:09:32.248Z,4.10
2022-09-21T05:11:58.990Z,4.33
2022-09-21T05:14:25.659Z,4.27
2022-09-21T05:16:52.392Z,4.57
2022-09-21T05:19:19.068Z,3.90
2022-09-21T05:21:46.415Z,3.87
2022-09-21T05:24:15.943Z,3.40
2022-09-21T05:26:42.648Z,3.33
2022-09-21T05:29:09.692Z,3.13
2022-09-21T05:31:48.413Z,3.30
2022-09-21T05:34:44.159Z,2.90
2022-09-21T05:37:37.825Z,2.97
2022-09-21T05:40:06.281Z,3.90
2022-09-21T05:42:33.432Z,2.93
2022-09-21T05:45:00.598Z,3.20
2022-09-21T05:47:40.536Z,3.03
2022-09-21T05:50:16.577Z,3.40
2022-09-21T05:52:49.023Z,4.40
2022-09-21T05:55:25.137Z,3.47
2022-09-21T05:58:40.697Z,3.60
2022-09-21T06:01:10.393Z,3.37
2022-09-21T06:03:38.171Z,3.30
2022-09-21T06:06:04.951Z,3.33
2022-09-21T06:08:31.834Z,3.00
2022-09-21T06:10:58.669Z,3.43
2022-09-21T06:13:26.522Z,2.90
2022-09-21T06:15:53.826Z,3.00
2022-09-21T06:18:20.617Z,3.33
2022-09-21T06:20:47.340Z,3.00
2022-09-21T06:23:15.592Z,3.80
2022-09-21T06:25:42.302Z,3.93
2022-09-21T06:28:11.727Z,3.60
2022-09-21T06:30:40.773Z,3.60
2022-09-21T06:33:07.913Z,3.53
2022-09-21T06:35:36.132Z,3.30
2022-09-21T06:38:07.630Z,3.53
2022-09-21T06:40:36.231Z,3.43
2022-09-21T06:43:04.153Z,3.40
2022-09-21T06:45:31.272Z,3.23
2022-09-21T06:47:59.314Z,3.30
2022-09-21T06:50:26.199Z,4.30
2022-09-21T06:52:52.934Z,4.33
2022-09-21T06:55:19.994Z,4.50
2022-09-21T06:57:47.152Z,4.47
2022-09-21T07:00:14.510Z,4.50
2022-09-21T07:02:48.146Z,4.40
2022-09-21T07:05:14.886Z,4.10
2022-09-21T07:07:41.617Z,4.20
2022-09-21T07:10:13.519Z,3.00
2022-09-21T07:12:41.701Z,3.58
2022-09-21T07:15:10.327Z,3.47
2022-09-21T07:17:39.518Z,3.38
2022-09-21T07:20:08.044Z,2.92
2022-09-21T07:22:35.715Z,3.65
2022-09-21T07:25:03.670Z,3.13
2022-09-21T07:27:32.104Z,3.53
2022-09-21T07:29:58.895Z,2.90
2022-09-21T07:32:26.123Z,3.38
2022-09-21T07:34:56.549Z,2.92
2022-09-21T07:37:25.014Z,2.78
2022-09-21T07:39:52.923Z,2.70
2022-09-21T07:42:23.018Z,2.60
2022-09-21T07:44:50.918Z,2.08
2022-09-21T07:47:17.785Z,2.40
2022-09-21T07:49:45.211Z,1.80
2022-09-21T07:52:12.374Z,2.08
2022-09-21T07:54:39.029Z,1.80
2022-09-21T07:57:24.481Z,1.48
2022-09-21T07:59:51.247Z,1.50
2022-09-21T08:02:18.082Z,1.63
2022-09-21T08:04:44.784Z,1.30
2022-09-21T08:07:13.272Z,1.00
2022-09-21T08:09:40.833Z,1.10
2022-09-21T08:12:09.107Z,1.35
2022-09-21T08:14:36.058Z,1.20
2022-09-21T08:17:02.920Z,1.10
2022-09-21T08:19:29.624Z,1.10
2022-09-21T08:21:57.908Z,1.30
2022-09-21T08:24:26.784Z,1.20
2022-09-21T08:26:55.741Z,1.10
2022-09-21T08:29:24.606Z,0.95
2022-09-21T08:31:52.701Z,1.05
2022-09-21T08:34:20.101Z,1.02
2022-09-21T08:36:47.199Z,0.80
2022-09-21T08:39:15.525Z,1.02
2022-09-21T08:42:06.108Z,0.88
2022-09-21T08:44:56.361Z,0.90
2022-09-21T08:47:38.252Z,1.00
2022-09-21T08:50:14.403Z,0.90
2022-09-21T08:52:42.059Z,1.20
2022-09-21T08:55:18.032Z,1.00
2022-09-21T08:57:44.742Z,1.23
2022-09-21T09:00:16.770Z,1.00
2022-09-21T09:03:05.006Z,1.23
2022-09-21T09:05:41.159Z,1.00
2022-09-21T09:08:45.277Z,1.20
2022-09-21T09:11:17.823Z,1.20
2022-09-21T09:14:22.731Z,1.20
2022-09-21T09:17:07.986Z,1.30
2022-09-21T09:19:43.658Z,1.40
2022-09-21T09:22:15.158Z,1.30
2022-09-21T09:24:43.092Z,1.17
2022-09-21T09:27:15.196Z,0.82
2022-09-21T09:30:02.945Z,1.27
2022-09-21T09:33:13.742Z,1.00
2022-09-21T09:35:47.982Z,0.88
2022-09-21T09:38:19.945Z,0.70
2022-09-21T09:41:17.749Z,0.90
2022-09-21T09:43:56.453Z,1.30
2022-09-21T09:46:32.145Z,1.00
2022-09-21T09:49:36.790Z,0.90
2022-09-21T09:52:04.862Z,0.90
2022-09-21T09:54:35.387Z,0.93
2022-09-21T09:57:04.574Z,0.90
2022-09-21T09:59:50.467Z,0.77
2022-09-21T10:02:27.223Z,0.80
2022-09-21T10:05:05.884Z,0.80
2022-09-21T10:07:43.026Z,0.70
2022-09-21T10:10:29.049Z,0.55
2022-09-21T10:13:18.534Z,0.80
2022-09-21T10:15:58.463Z,0.50
2022-09-21T10:18:50.068Z,0.60
2022-09-21T10:21:23.528Z,0.60
2022-09-21T10:23:54.326Z,0.60
2022-09-21T10:26:21.692Z,0.60
2022-09-21T10:28:59.582Z,0.50
2022-09-21T10:31:29.839Z,0.52
2022-09-21T10:34:16.208Z,0.50
2022-09-21T10:36:51.785Z,0.70
2022-09-21T10:39:29.269Z,0.60
2022-09-21T10:42:12.152Z,0.50
2022-09-21T10:44:46.984Z,0.60
2022-09-21T10:47:19.083Z,0.50
2022-09-21T10:50:26.259Z,0.50
2022-09-21T10:53:19.195Z,0.60
2022-09-21T10:56:14.248Z,0.65
2022-09-21T10:59:20.499Z,0.60
2022-09-21T11:01:50.115Z,0.70
2022-09-21T11:04:43.537Z,0.70
2022-09-21T11:07:27.352Z,0.50
2022-09-21T11:10:34.647Z,0.52
2022-09-21T11:13:44.230Z,0.80
2022-09-21T11:16:13.936Z,0.60
2022-09-21T11:18:53.890Z,0.60
2022-09-21T11:21:30.098Z,0.57
2022-09-21T11:24:03.247Z,0.50
2022-09-21T11:26:38.223Z,0.50
2022-09-21T11:29:13.423Z,0.50
2022-09-21T11:32:15.058Z,0.60
2022-09-21T11:35:17.493Z,0.50
2022-09-21T11:37:56.481Z,0.77
2022-09-21T11:40:32.325Z,0.50
2022-09-21T11:43:20.182Z,0.40
2022-09-21T11:46:01.403Z,0.40
2022-09-21T11:48:39.739Z,0.60
2022-09-21T11:51:15.666Z,0.60
2022-09-21T11:54:08.476Z,0.77
2022-09-21T11:56:53.533Z,0.45
2022-09-21T11:59:32.838Z,0.60
2022-09-21T12:02:44.649Z,0.77
2022-09-21T12:05:29.780Z,0.68
2022-09-21T12:08:19.580Z,0.50
2022-09-21T12:10:58.506Z,0.60
2022-09-21T12:13:46.957Z,0.60
2022-09-21T12:16:16.938Z,0.50
2022-09-21T12:18:55.069Z,0.45
2022-09-21T12:21:27.481Z,1.60
2022-09-21T12:23:57.121Z,0.70
2022-09-21T12:26:29.638Z,0.65
2022-09-21T12:29:02.811Z,3.13
2022-09-21T12:31:51.301Z,1.53
2022-09-21T12:34:22.778Z,1.13
2022-09-21T12:37:12.476Z,0.60
2022-09-21T12:39:41.867Z,0.73
2022-09-21T12:42:17.279Z,1.20
2022-09-21T12:44:55.566Z,1.10
2022-09-21T12:47:45.891Z,1.10
2022-09-21T12:50:18.447Z,0.60
2022-09-21T12:52:46.013Z,0.50
2022-09-21T12:55:17.435Z,0.50
2022-09-21T12:58:15.789Z,0.60
2022-09-21T13:01:01.603Z,0.53
2022-09-21T13:03:44.826Z,0.50
2022-09-21T13:06:41.810Z,0.57
2022-09-21T13:09:13.296Z,0.50
2022-09-21T13:12:07.767Z,0.40
2022-09-21T13:14:41.538Z,0.30
2022-09-21T13:17:20.723Z,0.40
2022-09-21T13:20:17.697Z,0.63
2022-09-21T13:23:06.734Z,0.50
2022-09-21T13:25:37.642Z,0.70
2022-09-21T13:28:24.136Z,0.50
2022-09-21T13:31:09.931Z,0.40
2022-09-21T13:34:15.695Z,0.60
2022-09-21T13:36:43.506Z,0.50
2022-09-21T13:39:18.774Z,0.50
2022-09-21T13:42:02.512Z,0.60
2022-09-21T13:44:34.707Z,0.60
2022-09-21T13:47:02.212Z,0.53
2022-09-21T13:49:34.694Z,0.43
2022-09-21T13:52:13.404Z,0.43
2022-09-21T13:54:56.953Z,0.60
2022-09-21T13:57:47.035Z,0.50
2022-09-21T14:00:14.376Z,0.40
2022-09-21T14:02:44.702Z,1.10
2022-09-21T14:05:43.190Z,0.40
2022-09-21T14:08:15.943Z,0.50
2022-09-21T14:10:56.634Z,0.57
2022-09-21T14:13:31.601Z,0.60
2022-09-21T14:16:47.459Z,0.33
2022-09-21T14:19:17.366Z,0.40
2022-09-21T14:22:07.422Z,0.73
2022-09-21T14:24:49.631Z,0.50
2022-09-21T14:27:46.104Z,0.50
2022-09-21T14:30:22.331Z,0.50
2022-09-21T14:33:01.160Z,0.40
2022-09-21T14:35:33.842Z,0.50
2022-09-21T14:38:07.999Z,0.40
2022-09-21T14:40:39.826Z,0.60
2022-09-21T14:43:09.788Z,0.40
2022-09-21T14:45:57.164Z,0.30
2022-09-21T14:48:58.333Z,0.50
2022-09-21T14:51:55.678Z,0.50
2022-09-21T14:54:37.560Z,0.47
2022-09-21T14:57:23.804Z,0.40
2022-09-21T15:00:14.671Z,0.50
2022-09-21T15:02:44.566Z,0.70
2022-09-21T15:05:29.409Z,0.50
2022-09-21T15:08:39.442Z,0.43
2022-09-21T15:11:24.276Z,0.50
2022-09-21T15:14:07.546Z,0.40
2022-09-21T15:16:50.314Z,0.50
2022-09-21T15:19:28.190Z,0.40
2022-09-21T15:22:09.386Z,0.30
2022-09-21T15:24:36.237Z,0.43
2022-09-21T15:27:10.350Z,0.37
2022-09-21T15:29:38.548Z,0.40
2022-09-21T15:32:08.080Z,0.40
2022-09-21T15:34:36.402Z,0.40
2022-09-21T15:37:16.551Z,0.63
2022-09-21T15:39:43.561Z,0.60
2022-09-21T15:42:11.211Z,0.37
2022-09-21T15:44:39.436Z,0.50
2022-09-21T15:47:11.170Z,0.40
2022-09-21T15:49:39.487Z,0.37
2022-09-21T15:52:16.453Z,0.60
2022-09-21T15:54:52.680Z,1.00
2022-09-21T15:57:39.610Z,0.60
2022-09-21T16:00:18.274Z,0.67
2022-09-21T16:03:05.092Z,0.40
2022-09-21T16:05:43.112Z,0.57
2022-09-21T16:08:30.190Z,0.43
2022-09-21T16:11:16.139Z,0.50
2022-09-21T16:14:04.840Z,0.60
2022-09-21T16:16:31.911Z,0.37
2022-09-21T16:19:01.996Z,0.60
2022-09-21T16:21:40.043Z,0.50
2022-09-21T16:24:22.828Z,0.53
2022-09-21T16:27:03.049Z,0.50
2022-09-21T16:29:42.257Z,0.50
2022-09-21T16:32:18.007Z,0.40
2022-09-21T16:34:46.717Z,0.50
2022-09-21T16:37:27.476Z,0.40
2022-09-21T16:39:56.175Z,0.40
2022-09-21T16:42:28.903Z,0.50
2022-09-21T16:44:57.792Z,0.50
2022-09-21T16:47:27.291Z,0.40
2022-09-21T16:49:58.047Z,0.50
2022-09-21T16:52:28.628Z,0.47
2022-09-21T16:54:58.846Z,0.50
2022-09-21T16:57:26.622Z,0.47
2022-09-21T16:59:53.451Z,0.50
2022-09-21T17:02:23.151Z,0.40
2022-09-21T17:04:52.737Z,0.77
2022-09-21T17:07:20.009Z,0.50
2022-09-21T17:09:48.943Z,0.60
2022-09-21T17:12:22.299Z,0.40
2022-09-21T17:14:52.027Z,0.53
2022-09-21T17:17:22.274Z,0.60
2022-09-21T17:19:52.980Z,0.50
2022-09-21T17:22:22.731Z,0.70
2022-09-21T17:24:52.518Z,0.60
2022-09-21T17:27:23.189Z,0.60
2022-09-21T17:29:53.915Z,0.70
2022-09-21T17:32:25.464Z,0.60
2022-09-21T17:35:17.238Z,0.90
2022-09-21T17:37:45.122Z,1.10
2022-09-21T17:40:13.035Z,0.70
2022-09-21T17:42:43.229Z,0.80
2022-09-21T17:45:28.900Z,0.63
2022-09-21T17:47:57.320Z,0.60
2022-09-21T17:50:27.247Z,0.70
2022-09-21T17:53:16.204Z,0.70
2022-09-21T17:55:54.527Z,0.90
2022-09-21T17:59:01.676Z,1.20
2022-09-21T18:01:36.248Z,1.00
2022-09-21T18:04:05.944Z,0.93
2022-09-21T18:06:35.002Z,1.13
2022-09-21T18:09:02.625Z,1.40
2022-09-21T18:11:37.004Z,1.20
2022-09-21T18:14:22.999Z,1.70
2022-09-21T18:17:11.092Z,1.33
2022-09-21T18:20:26.180Z,1.40
2022-09-21T18:23:06.754Z,1.30
2022-09-21T18:25:50.953Z,1.20
2022-09-21T18:28:24.092Z,1.20
2022-09-21T18:31:31.100Z,1.00
2022-09-21T18:34:29.933Z,1.50
2022-09-21T18:37:45.321Z,1.20
2022-09-21T18:40:52.105Z,1.07
2022-09-21T18:43:26.553Z,1.23
2022-09-21T18:46:22.401Z,1.33
2022-09-21T18:48:51.148Z,1.30
2022-09-21T18:51:22.141Z,1.17
2022-09-21T18:54:02.187Z,1.50
2022-09-21T18:56:34.819Z,1.47
2022-09-21T18:59:02.793Z,1.27
2022-09-21T19:01:33.001Z,1.40
2022-09-21T19:04:01.425Z,1.57
2022-09-21T19:06:55.030Z,1.30
2022-09-21T19:09:45.978Z,1.40
2022-09-21T19:12:30.200Z,1.10
2022-09-21T19:18:21.342Z,1.27
2022-09-21T19:21:00.206Z,1.37
2022-09-21T19:23:58.865Z,1.80
2022-09-21T19:26:38.928Z,1.90
2022-09-21T19:29:33.541Z,1.80
2022-09-21T19:32:02.219Z,1.50
2022-09-21T19:34:30.196Z,1.50
2022-09-21T19:37:07.019Z,1.40
2022-09-21T19:39:37.232Z,1.50
2022-09-21T19:42:03.905Z,1.47
2022-09-21T19:44:51.517Z,1.67
2022-09-21T19:47:31.535Z,1.13
2022-09-21T19:50:20.808Z,1.47
2022-09-21T19:52:48.007Z,1.60
2022-09-21T19:55:41.156Z,1.67
2022-09-21T19:58:27.809Z,1.90
2022-09-21T20:00:56.746Z,1.60
2022-09-21T20:03:31.751Z,1.67
2022-09-21T20:06:19.310Z,1.30
2022-09-21T20:08:55.226Z,1.57
2022-09-21T20:11:41.545Z,1.47
2022-09-21T20:14:19.298Z,1.47
2022-09-21T20:16:50.130Z,1.50
2022-09-21T20:19:33.337Z,1.70
2022-09-21T20:22:09.025Z,1.50
2022-09-21T20:25:00.212Z,2.43
2022-09-21T20:27:34.921Z,4.20
2022-09-21T20:30:06.082Z,2.17
2022-09-21T20:32:35.350Z,2.20
2022-09-21T20:35:02.174Z,2.20
2022-09-21T20:37:31.202Z,2.00
2022-09-21T20:40:01.677Z,1.93
2022-09-21T20:42:28.923Z,2.10
2022-09-21T20:44:58.881Z,2.13
2022-09-21T20:47:28.973Z,1.70
2022-09-21T20:50:00.503Z,1.60
2022-09-21T20:52:27.219Z,1.40
2022-09-21T20:54:53.869Z,1.37
2022-09-21T20:57:21.400Z,1.03
2022-09-21T20:59:48.118Z,1.30
2022-09-21T21:02:16.602Z,1.30
2022-09-21T21:04:43.314Z,1.20
2022-09-21T21:07:10.125Z,1.33
2022-09-21T21:09:37.723Z,1.40
2022-09-21T21:12:05.251Z,0.80
2022-09-21T21:14:34.692Z,0.90
2022-09-21T21:17:02.676Z,0.80
2022-09-21T21:19:32.223Z,1.07
2022-09-21T21:21:59.913Z,0.93
2022-09-21T21:24:40.264Z,1.10
2022-09-21T21:27:19.031Z,0.90
2022-09-21T21:29:47.325Z,1.10
2022-09-21T21:32:15.133Z,1.00
2022-09-21T21:34:45.223Z,1.10
2022-09-21T21:37:16.486Z,0.90
2022-09-21T21:39:43.457Z,1.00
2022-09-21T21:42:10.506Z,0.90
2022-09-21T21:44:37.499Z,0.97
2022-09-21T21:47:27.447Z,1.70
2022-09-21T21:49:52.396Z,1.30
2022-09-21T21:52:19.115Z,1.43
2022-09-21T21:54:45.854Z,1.23
2022-09-21T21:57:15.089Z,1.40
2022-09-21T21:59:43.755Z,1.47
2022-09-21T22:02:10.608Z,1.47
2022-09-21T22:04:39.189Z,1.67
2022-09-21T22:07:07.165Z,2.30
2022-09-21T22:09:35.472Z,1.67
2022-09-21T22:12:03.720Z,1.47
2022-09-21T22:14:32.779Z,1.20
2022-09-21T22:17:01.195Z,1.20
2022-09-21T22:19:28.313Z,1.00
2022-09-21T22:21:55.588Z,1.03
2022-09-21T22:24:22.642Z,1.00
2022-09-21T22:26:49.321Z,1.10
2022-09-21T22:29:18.037Z,0.93
2022-09-21T22:31:49.445Z,1.20
2022-09-21T22:34:16.663Z,1.20
2022-09-21T22:36:44.013Z,1.60
2022-09-21T22:39:13.907Z,2.30
2022-09-21T22:41:43.703Z,2.60
2022-09-21T22:44:13.954Z,2.93
2022-09-21T22:46:44.987Z,3.17
2022-09-21T22:49:11.690Z,2.20
2022-09-21T22:51:38.423Z,1.90
2022-09-21T22:54:05.451Z,1.90
2022-09-21T22:56:33.281Z,1.83
2022-09-21T22:59:04.449Z,1.70
2022-09-21T23:01:40.741Z,1.40
2022-09-21T23:04:14.073Z,1.57
2022-09-21T23:06:43.635Z,1.73
2022-09-21T23:09:16.843Z,1.63
2022-09-21T23:11:47.529Z,1.90
2022-09-21T23:14:15.990Z,1.60
2022-09-21T23:16:43.330Z,2.00
2022-09-21T23:19:15.459Z,1.63
2022-09-21T23:21:49.622Z,1.47
2022-09-21T23:24:17.584Z,1.30
2022-09-21T23:26:50.642Z,1.20
2022-09-21T23:29:20.909Z,1.60
2022-09-21T23:31:47.701Z,1.33
2022-09-21T23:34:15.495Z,1.20
2022-09-21T23:36:46.971Z,1.17
2022-09-21T23:39:16.166Z,1.30
2022-09-21T23:41:43.832Z,1.37
2022-09-21T23:44:12.125Z,1.30
2022-09-21T23:46:40.740Z,1.20
2022-09-21T23:49:07.865Z,1.00
2022-09-21T23:51:40.655Z,1.20
2022-09-21T23:54:07.867Z,1.03
2022-09-21T23:56:35.252Z,1.10
2022-09-21T23:59:02.417Z,0.90
